Time;durP1;ratioP1;P1;durP2;ratioP2;P2;SDS_P1;SDS_P2;PMS_P1;PMS_P2;Temp;Humidity;BMP_temperature;BMP_pressure;BME280_temperature;BME280_humidity;BME280_pressure;Samples;Min_cycle;Max_cycle;Signal;HPM_P1;HPM_P2
2023/08/16 00:01:44;;;;;;;0.45;0.45;;;28.70;56.00;;;29.45;40.24;95137.94;5035049;28;20325;-40
2023/08/16 00:04:11;;;;;;;0.30;0.30;;;28.70;56.20;;;29.42;40.74;95139.34;5035201;28;20258;-39
2023/08/16 00:06:42;;;;;;;0.30;0.30;;;28.60;56.20;;;29.43;40.96;95142.84;5034875;28;20198;-39
2023/08/16 00:09:10;;;;;;;0.30;0.30;;;28.60;56.30;;;29.39;40.22;95140.75;5035173;28;20197;-39
2023/08/16 00:11:37;;;;;;;0.30;0.30;;;28.60;56.30;;;29.38;40.97;95154.56;5035054;28;20193;-39
2023/08/16 00:14:04;;;;;;;0.30;0.30;;;28.60;56.30;;;29.35;40.81;95158.69;5034830;28;20262;-39
2023/08/16 00:16:31;;;;;;;0.40;0.40;;;28.60;56.40;;;29.33;40.33;95158.19;5033728;28;20209;-40
2023/08/16 00:18:59;;;;;;;0.30;0.30;;;28.60;56.40;;;29.32;40.42;95155.78;5034052;28;20192;-39
2023/08/16 00:21:26;;;;;;;0.30;0.30;;;28.50;56.50;;;29.30;40.46;95150.69;5034074;28;20249;-39
2023/08/16 00:23:53;;;;;;;0.30;0.30;;;28.50;56.50;;;29.29;41.12;95146.38;5034176;28;20200;-39
2023/08/16 00:26:21;;;;;;;0.30;0.30;;;28.50;56.60;;;29.28;41.26;95147.47;5034791;28;20210;-39
2023/08/16 00:28:48;;;;;;;0.30;0.30;;;28.50;56.70;;;29.27;41.03;95145.84;5033704;28;20203;-39
2023/08/16 00:31:16;;;;;;;0.22;0.22;;;28.50;56.70;;;29.24;40.70;95141.88;5033876;28;20644;-39
2023/08/16 00:33:43;;;;;;;0.30;0.30;;;28.50;56.80;;;29.21;41.29;95145.19;5034786;28;20198;-40
2023/08/16 00:36:11;;;;;;;0.30;0.30;;;28.50;56.80;;;29.22;40.91;95145.97;5034917;28;20212;-40
2023/08/16 00:38:42;;;;;;;0.30;0.30;;;28.40;56.80;;;29.21;41.30;95136.28;5034499;28;20192;-41
2023/08/16 00:41:11;;;;;;;0.22;0.22;;;28.40;56.90;;;29.20;41.41;95138.19;5035183;28;20187;-41
2023/08/16 00:43:40;;;;;;;0.20;0.20;;;28.40;57.00;;;29.20;40.98;95137.41;5034599;28;20634;-41
2023/08/16 00:46:13;;;;;;;0.30;0.30;;;28.40;57.10;;;29.19;41.06;95133.88;5050261;28;20206;-41
2023/08/16 00:48:44;;;;;;;0.38;0.38;;;28.40;57.30;;;29.18;41.66;95137.69;5033603;28;20332;-41
2023/08/16 00:51:11;;;;;;;0.20;0.20;;;28.40;57.30;;;29.18;41.19;95137.69;5017450;28;20571;-40
2023/08/16 00:53:40;;;;;;;0.20;0.20;;;28.40;57.30;;;29.18;41.73;95128.81;5033502;28;20240;-41
2023/08/16 00:56:14;;;;;;;0.20;0.20;;;28.40;58.60;;;29.16;41.44;95126.41;5033605;28;20199;-40
2023/08/16 00:58:42;;;;;;;0.30;0.30;;;28.40;57.50;;;29.14;41.80;95131.31;5034314;28;20228;-45
2023/08/16 01:01:10;;;;;;;0.30;0.30;;;28.40;57.50;;;29.13;42.02;95127.00;5033586;28;20230;-42
2023/08/16 01:03:38;;;;;;;0.30;0.30;;;28.40;57.40;;;29.13;41.91;95131.63;5037551;28;20231;-40
2023/08/16 01:06:05;;;;;;;0.30;0.30;;;28.40;57.60;;;29.12;41.87;95127.31;5038413;28;20645;-41
2023/08/16 01:08:33;;;;;;;0.20;0.20;;;28.40;57.60;;;29.14;41.91;95131.31;5036956;28;20200;-40
2023/08/16 01:11:34;;;;;;;0.30;0.30;;;28.30;57.60;;;29.13;42.16;95135.13;5038285;28;20189;-41
2023/08/16 01:14:25;;;;;;;0.20;0.20;;;28.40;57.80;;;29.13;42.05;95140.50;5037142;28;20287;-40
2023/08/16 01:16:53;;;;;;;0.30;0.30;;;28.40;57.80;;;29.16;41.64;95139.91;5038048;28;20275;-40
2023/08/16 01:19:29;;;;;;;0.30;0.30;;;28.40;57.90;;;29.16;41.74;95147.22;5037304;28;20298;-43
2023/08/16 01:22:36;;;;;;;0.22;0.22;;;28.40;57.80;;;29.11;42.08;95139.22;5036801;28;20651;-42
2023/08/16 01:25:36;;;;;;;0.35;0.35;;;28.40;57.60;;;29.05;42.20;95139.34;5037254;28;20223;-40
2023/08/16 01:28:05;;;;;;;0.30;0.30;;;28.40;57.60;;;29.05;41.46;95133.13;5026479;28;20262;-41
2023/08/16 01:30:32;;;;;;;0.38;0.38;;;28.40;57.60;;;29.03;42.20;95130.75;5036744;28;20237;-42
2023/08/16 01:33:10;;;;;;;0.30;0.30;;;28.40;57.60;;;29.02;42.09;95137.25;5036783;28;20229;-40
2023/08/16 01:35:39;;;;;;;0.30;0.30;;;28.30;57.70;;;29.01;42.16;95129.44;5037861;28;20675;-44
2023/08/16 01:38:10;;;;;;;0.30;0.30;;;28.30;57.70;;;29.02;41.63;95122.94;5037651;28;20192;-42
2023/08/16 01:40:54;;;;;;;0.30;0.30;;;28.30;57.80;;;29.01;41.82;95122.13;5020287;28;20271;-40
2023/08/16 01:43:22;;;;;;;0.35;0.35;;;28.30;58.10;;;28.98;41.86;95113.84;5020488;28;20216;-40
2023/08/16 01:45:52;;;;;;;0.30;0.30;;;28.30;58.00;;;29.02;41.79;95128.34;5036442;28;20606;-41
2023/08/16 01:48:23;;;;;;;0.30;0.30;;;28.30;58.10;;;29.02;42.33;95131.84;5019929;28;20235;-41
2023/08/16 01:50:50;;;;;;;0.30;0.30;;;28.30;59.50;;;29.03;42.62;95138.84;5036383;28;20194;-40
2023/08/16 01:53:19;;;;;;;0.30;0.30;;;28.30;58.30;;;29.05;42.13;95136.66;5037749;28;20561;-41
2023/08/16 01:55:46;;;;;;;0.30;0.30;;;28.30;58.40;;;29.06;42.10;95135.53;5037271;28;20628;-42
2023/08/16 01:58:14;;;;;;;0.30;0.30;;;28.30;58.30;;;29.06;42.48;95134.72;5052694;28;20211;-41
2023/08/16 02:00:41;;;;;;;0.30;0.30;;;28.30;58.00;;;29.03;41.94;95133.44;5037326;28;20203;-41
2023/08/16 02:03:08;;;;;;;0.30;0.30;;;28.30;57.90;;;29.03;41.90;95127.25;5036861;28;20226;-43
2023/08/16 02:05:35;;;;;;;0.30;0.30;;;28.30;58.00;;;28.99;42.46;95132.47;5036112;28;20554;-39
2023/08/16 02:08:03;;;;;;;0.30;0.30;;;28.30;58.00;;;28.99;42.33;95132.47;5037114;28;20215;-39
2023/08/16 02:10:30;;;;;;;0.30;0.30;;;28.30;58.00;;;29.00;42.51;95133.25;5036940;28;20215;-39
2023/08/16 02:12:57;;;;;;;0.30;0.30;;;28.30;58.10;;;28.99;41.92;95132.47;5052742;28;20256;-39
2023/08/16 02:15:25;;;;;;;0.30;0.30;;;28.30;58.10;;;28.97;42.10;95140.06;5035403;28;20228;-39
2023/08/16 02:17:53;;;;;;;0.30;0.30;;;28.30;58.20;;;28.93;42.50;95144.47;5036074;28;20204;-39
2023/08/16 02:20:20;;;;;;;0.30;0.30;;;28.20;58.00;;;28.88;41.97;95136.47;5019512;28;20213;-39
2023/08/16 02:22:48;;;;;;;0.30;0.30;;;28.20;58.00;;;28.85;42.18;95139.78;5035746;28;20239;-39
2023/08/16 02:25:15;;;;;;;0.30;0.30;;;28.20;57.90;;;28.81;41.93;95139.59;5052348;28;20205;-39
2023/08/16 02:27:44;;;;;;;0.30;0.30;;;28.10;58.00;;;28.77;42.49;95138.59;5035596;28;20229;-39
2023/08/16 02:30:11;;;;;;;0.32;0.32;;;28.10;58.00;;;28.75;42.29;95140.81;5035607;28;20199;-39
2023/08/16 02:32:38;;;;;;;0.30;0.30;;;28.10;58.10;;;28.76;42.34;95145.13;5035723;28;20223;-39
2023/08/16 02:35:06;;;;;;;0.30;0.30;;;28.10;58.20;;;28.76;42.22;95139.72;5035495;28;20214;-39
2023/08/16 02:37:33;;;;;;;0.30;0.30;;;28.10;58.30;;;28.75;42.17;95141.59;5036331;28;20199;-39
2023/08/16 02:40:00;;;;;;;0.30;0.30;;;28.10;58.30;;;28.70;42.52;95130.91;5036651;28;20235;-39
2023/08/16 02:42:27;;;;;;;0.30;0.30;;;28.00;58.20;;;28.68;42.38;95138.50;5036249;28;20611;-39
2023/08/16 02:44:55;;;;;;;0.30;0.30;;;28.00;58.20;;;28.67;42.76;95128.00;5036276;28;20187;-39
2023/08/16 02:47:22;;;;;;;0.30;0.30;;;27.90;58.20;;;28.65;42.57;95130.19;5035966;28;20233;-39
2023/08/16 02:49:50;;;;;;;0.30;0.30;;;28.00;58.30;;;28.63;42.28;95124.31;5036163;28;20195;-39
2023/08/16 02:52:17;;;;;;;0.30;0.30;;;27.90;58.30;;;28.60;42.25;95123.00;5035208;28;20299;-39
2023/08/16 02:54:44;;;;;;;0.30;0.30;;;27.90;59.70;;;28.56;42.29;95122.81;5036363;28;20203;-39
2023/08/16 02:57:11;;;;;;;0.30;0.30;;;27.90;58.50;;;28.53;42.53;95131.50;5036034;28;20203;-39
2023/08/16 02:59:41;;;;;;;0.30;0.30;;;27.80;58.40;;;28.53;42.91;95122.63;5036071;28;20226;-39
2023/08/16 03:02:08;;;;;;;0.28;0.28;;;27.80;58.50;;;28.53;42.90;95128.81;5018589;28;20248;-39
2023/08/16 03:04:41;;;;;;;0.30;0.30;;;27.80;58.70;;;28.52;43.29;95129.91;5036138;28;20737;-39
2023/08/16 03:07:10;;;;;;;0.30;0.30;;;27.80;58.90;;;28.50;42.80;95134.78;5035898;28;20179;-39
2023/08/16 03:09:38;;;;;;;0.30;0.30;;;27.80;58.90;;;28.51;43.45;95139.09;5051332;28;20197;-39
2023/08/16 03:12:06;;;;;;;0.30;0.30;;;27.80;58.90;;;28.50;43.43;95140.19;5035754;28;20688;-39
2023/08/16 03:14:34;;;;;;;0.30;0.30;;;27.80;58.90;;;28.50;42.84;95139.41;5035715;28;20196;-39
2023/08/16 03:17:02;;;;;;;0.25;0.25;;;27.80;59.00;;;28.49;43.55;95137.78;5035959;28;20528;-39
2023/08/16 03:19:29;;;;;;;0.30;0.30;;;27.80;59.00;;;28.48;43.49;95136.19;5034536;28;20207;-39
2023/08/16 03:21:56;;;;;;;0.30;0.30;;;27.80;59.00;;;28.46;43.08;95128.41;5034807;28;20544;-39
2023/08/16 03:24:26;;;;;;;0.30;0.30;;;27.80;59.10;;;28.45;43.10;95137.59;5035442;28;20208;-39
2023/08/16 03:26:55;;;;;;;0.20;0.20;;;27.80;59.10;;;28.44;43.01;95138.69;5050305;28;20200;-39
2023/08/16 03:29:22;;;;;;;0.22;0.22;;;27.80;59.20;;;28.44;43.26;95144.09;5018001;28;20216;-39
2023/08/16 03:31:50;;;;;;;0.30;0.30;;;27.80;59.20;;;28.44;43.26;95149.47;5034454;28;20650;-39
2023/08/16 03:34:17;;;;;;;0.28;0.28;;;27.80;59.10;;;28.43;43.14;95148.69;5051011;28;20643;-39
2023/08/16 03:36:45;;;;;;;0.30;0.30;;;27.80;59.10;;;28.41;43.10;95145.50;5034420;28;20214;-39
2023/08/16 03:39:12;;;;;;;0.35;0.35;;;27.80;59.20;;;28.43;43.65;95158.69;5034233;28;20224;-39
2023/08/16 03:41:39;;;;;;;0.30;0.30;;;27.80;59.30;;;28.42;43.73;95159.78;5035280;28;20207;-39
2023/08/16 03:44:07;;;;;;;0.32;0.32;;;27.80;59.30;;;28.41;43.72;95155.50;5035154;28;20401;-39
2023/08/16 03:46:34;;;;;;;0.30;0.30;;;27.80;59.30;;;28.39;43.40;95157.69;5035064;28;20194;-39
2023/08/16 03:49:02;;;;;;;0.40;0.40;;;27.80;59.40;;;28.39;43.35;95160.38;5034088;28;20199;-39
2023/08/16 03:51:29;;;;;;;0.30;0.30;;;27.80;59.40;;;28.37;43.39;95166.09;5035393;28;20522;-39
2023/08/16 03:53:57;;;;;;;0.30;0.30;;;27.80;60.50;;;28.37;44.07;95167.97;5036058;28;20199;-39
2023/08/16 03:56:24;;;;;;;0.30;0.30;;;27.80;59.40;;;28.36;43.68;95172.56;5034284;28;20286;-41
2023/08/16 03:58:51;;;;;;;0.30;0.30;;;27.80;59.40;;;28.35;43.76;95168.28;5034331;28;20212;-38
2023/08/16 04:01:19;;;;;;;0.20;0.20;;;27.80;59.40;;;28.35;43.94;95164.78;5034203;28;20698;-38
2023/08/16 04:03:47;;;;;;;0.40;0.40;;;27.80;59.50;;;28.32;43.59;95170.75;5034257;28;20571;-40
2023/08/16 04:06:15;;;;;;;0.35;0.35;;;27.80;59.50;;;28.31;43.94;95172.69;5034006;28;20612;-36
2023/08/16 04:08:42;;;;;;;0.30;0.30;;;27.70;59.50;;;28.30;43.58;95184.56;5034052;28;20707;-36
2023/08/16 04:11:10;;;;;;;0.30;0.30;;;27.70;59.50;;;28.30;43.53;95189.94;5035067;28;20240;-37
2023/08/16 04:13:37;;;;;;;0.30;0.30;;;27.70;59.50;;;28.30;43.85;95187.25;5034885;28;20228;-40
2023/08/16 04:16:04;;;;;;;0.30;0.30;;;27.70;59.60;;;28.30;43.98;95189.94;5034727;28;20578;-39
2023/08/16 04:18:31;;;;;;;0.30;0.30;;;27.70;59.60;;;28.28;43.78;95201.06;5033692;28;20211;-40
2023/08/16 04:20:59;;;;;;;0.30;0.30;;;27.70;59.60;;;28.29;43.62;95201.84;5035116;28;20207;-40
2023/08/16 04:23:27;;;;;;;0.30;0.30;;;27.70;59.60;;;28.29;43.81;95209.94;5035364;28;20211;-36
2023/08/16 04:25:54;;;;;;;0.30;0.30;;;27.70;59.70;;;28.28;43.60;95209.13;5034008;28;20307;-36
2023/08/16 04:28:21;;;;;;;0.28;0.28;;;27.70;59.70;;;28.27;43.71;95209.41;5050285;28;20212;-37
2023/08/16 04:30:52;;;;;;;0.30;0.30;;;27.70;59.80;;;28.25;44.15;95222.41;5051085;28;20614;-36
2023/08/16 04:33:20;;;;;;;0.30;0.30;;;27.60;59.60;;;28.24;43.73;95226.22;5034843;28;20273;-36
2023/08/16 04:35:47;;;;;;;0.30;0.30;;;27.70;59.80;;;28.24;43.80;95231.59;5050335;28;20208;-36
2023/08/16 04:38:15;;;;;;;0.40;0.40;;;27.60;59.70;;;28.24;44.19;95227.00;5036012;28;20297;-36
2023/08/16 04:40:42;;;;;;;0.35;0.35;;;27.60;59.90;;;28.24;43.99;95228.91;5054566;28;20218;-39
2023/08/16 04:43:10;;;;;;;0.30;0.30;;;27.70;60.00;;;28.26;44.31;95232.13;5037795;28;20239;-36
2023/08/16 04:45:37;;;;;;;0.30;0.30;;;27.60;59.90;;;28.26;44.41;95238.31;5021271;28;20228;-36
2023/08/16 04:48:05;;;;;;;0.30;0.30;;;27.60;60.00;;;28.27;43.71;95241.78;5038410;28;20246;-36
2023/08/16 04:50:32;;;;;;;0.30;0.30;;;27.60;60.00;;;28.26;44.27;95238.31;5037379;28;20192;-37
2023/08/16 04:53:01;;;;;;;0.30;0.30;;;27.60;60.00;;;28.27;44.36;95237.22;5037421;28;20651;-36
2023/08/16 04:55:28;;;;;;;0.20;0.20;;;27.70;60.10;;;28.27;44.19;95236.38;5038925;28;20282;-38
2023/08/16 04:57:56;;;;;;;0.30;0.30;;;27.60;60.10;;;28.27;43.90;95247.19;5021009;28;20263;-37
2023/08/16 05:00:23;;;;;;;0.30;0.30;;;27.60;60.00;;;28.23;44.06;95238.09;5037191;28;20218;-37
2023/08/16 05:02:54;;;;;;;0.30;0.30;;;27.70;60.10;;;28.26;44.52;95240.22;5037831;28;20237;-36
2023/08/16 05:05:23;;;;;;;0.20;0.20;;;27.70;60.20;;;28.24;43.92;95251.28;5037846;28;20200;-37
2023/08/16 05:07:50;;;;;;;0.30;0.30;;;27.60;60.20;;;28.22;44.65;95241.88;5038467;28;20206;-36
2023/08/16 05:10:17;;;;;;;0.30;0.30;;;27.60;60.10;;;28.22;44.42;95249.97;5053663;28;20520;-36
2023/08/16 05:12:44;;;;;;;0.30;0.30;;;27.60;60.20;;;28.16;44.05;95241.19;5038076;28;20229;-38
2023/08/16 05:15:11;;;;;;;0.30;0.30;;;27.60;60.20;;;28.18;44.32;95249.75;5038032;28;20246;-36
2023/08/16 05:17:39;;;;;;;0.40;0.40;;;27.60;60.20;;;28.17;44.12;95242.75;5037140;28;20264;-36
2023/08/16 05:20:07;;;;;;;0.30;0.30;;;27.60;60.20;;;28.17;44.79;95245.47;5036911;28;20211;-36
2023/08/16 05:22:34;;;;;;;0.30;0.30;;;27.60;60.20;;;28.15;44.39;95249.56;5038091;28;20215;-43
2023/08/16 05:25:02;;;;;;;0.28;0.28;;;27.60;60.30;;;28.13;44.77;95259.84;5020860;28;20738;-37
2023/08/16 05:27:29;;;;;;;0.20;0.20;;;27.60;60.30;;;28.13;44.29;95259.84;5038301;28;20216;-37
2023/08/16 05:29:56;;;;;;;0.30;0.30;;;27.60;60.30;;;28.11;44.62;95255.56;5037809;28;20196;-40
2023/08/16 05:32:24;;;;;;;0.30;0.30;;;27.60;60.40;;;28.11;44.68;95254.72;5037793;28;20185;-37
2023/08/16 05:34:53;;;;;;;0.30;0.30;;;27.60;60.40;;;28.09;44.84;95255.03;5036778;28;20622;-41
2023/08/16 05:37:20;;;;;;;0.22;0.22;;;27.60;60.50;;;28.09;44.98;95252.34;5037568;28;20541;-41
2023/08/16 05:39:49;;;;;;;0.38;0.38;;;27.50;60.40;;;28.08;45.09;95255.34;5037782;28;20512;-42
2023/08/16 05:42:16;;;;;;;0.30;0.30;;;27.50;60.50;;;28.08;45.27;95260.72;5036984;28;20195;-43
2023/08/16 05:44:43;;;;;;;0.32;0.32;;;27.60;60.60;;;28.06;45.22;95260.22;5037979;28;20215;-44
2023/08/16 05:47:10;;;;;;;0.30;0.30;;;27.60;60.70;;;28.05;44.87;95256.72;5037453;28;20231;-40
2023/08/16 05:49:37;;;;;;;0.35;0.35;;;27.50;60.60;;;28.05;44.92;95259.44;5036302;28;20202;-41
2023/08/16 05:52:04;;;;;;;0.30;0.30;;;27.50;60.60;;;27.98;45.09;95248.19;5036385;28;20197;-40
2023/08/16 05:54:32;;;;;;;0.30;0.30;;;27.50;60.70;;;28.03;44.86;95258.09;5037527;28;20202;-40
2023/08/16 05:56:59;;;;;;;0.30;0.30;;;27.50;60.70;;;28.02;45.04;95259.19;5037476;28;20260;-40
2023/08/16 05:59:26;;;;;;;0.40;0.40;;;27.50;60.80;;;28.02;45.19;95259.19;5037354;28;20535;-40
2023/08/16 06:01:53;;;;;;;0.30;0.30;;;27.50;60.80;;;28.01;45.05;95257.59;5037152;28;20208;-40
2023/08/16 06:04:20;;;;;;;0.32;0.32;;;27.50;60.90;;;28.01;45.32;95255.69;5037307;28;20306;-41
2023/08/16 06:06:48;;;;;;;0.30;0.30;;;27.50;60.90;;;28.01;45.29;95261.06;5037229;28;20209;-41
2023/08/16 06:09:16;;;;;;;0.45;0.45;;;27.50;61.00;;;28.02;44.98;95256.50;5036875;28;20188;-41
2023/08/16 06:11:45;;;;;;;0.30;0.30;;;27.50;61.00;;;28.02;45.86;95259.19;5036990;28;20218;-41
2023/08/16 06:14:13;;;;;;;0.30;0.30;;;27.50;61.00;;;28.01;45.91;95255.69;5036900;28;20200;-41
2023/08/16 06:16:40;;;;;;;0.30;0.30;;;27.50;61.00;;;28.03;45.31;95264.28;5036855;28;20210;-41
2023/08/16 06:19:07;;;;;;;0.30;0.30;;;27.50;61.10;;;28.04;45.79;95263.19;5036893;28;20196;-41
2023/08/16 06:21:34;;;;;;;0.30;0.30;;;27.50;61.10;;;28.06;45.40;95268.31;5036780;28;20226;-40
2023/08/16 06:24:02;;;;;;;0.30;0.30;;;27.50;61.30;;;28.06;45.61;95254.81;5035774;28;20305;-41
2023/08/16 06:26:31;;;;;;;0.30;0.30;;;27.50;61.20;;;28.06;45.50;95252.13;5036223;28;20216;-42
2023/08/16 06:28:58;;;;;;;0.40;0.40;;;27.50;61.20;;;28.08;45.42;95255.34;5036418;28;20203;-41
2023/08/16 06:31:25;;;;;;;0.30;0.30;;;27.50;61.20;;;28.09;45.58;95255.03;5019408;28;20624;-41
2023/08/16 06:33:52;;;;;;;0.35;0.35;;;27.50;61.30;;;28.10;45.70;95250.47;5036508;28;20202;-41
2023/08/16 06:36:19;;;;;;;0.20;0.20;;;27.50;61.30;;;28.12;45.56;95253.66;5036462;28;20591;-41
2023/08/16 06:38:47;;;;;;;0.32;0.32;;;27.60;61.40;;;28.12;45.86;95242.84;5036435;28;20204;-41
2023/08/16 06:41:14;;;;;;;0.28;0.28;;;27.60;61.40;;;28.11;46.28;95244.75;5036266;28;20192;-40
2023/08/16 06:43:42;;;;;;;0.30;0.30;;;27.60;61.40;;;28.13;45.82;95251.75;5035645;28;20230;-40
2023/08/16 06:46:09;;;;;;;0.30;0.30;;;27.60;61.40;;;28.15;45.62;95252.25;5036333;28;20196;-36
2023/08/16 06:48:36;;;;;;;0.30;0.30;;;27.60;61.40;;;28.17;45.89;95247.38;5036184;28;20234;-36
2023/08/16 06:51:04;;;;;;;0.40;0.40;;;27.60;61.40;;;28.17;46.00;95250.06;5035244;28;20227;-37
2023/08/16 06:53:33;;;;;;;0.30;0.30;;;27.60;61.40;;;28.18;45.98;95240.88;5036319;28;20192;-37
2023/08/16 06:56:00;;;;;;;0.30;0.30;;;27.60;61.40;;;28.17;45.78;95231.97;5036073;28;20193;-38
2023/08/16 06:58:27;;;;;;;0.30;0.30;;;27.60;61.40;;;28.19;45.67;95254.06;5036135;28;20193;-39
2023/08/16 07:00:56;;;;;;;0.30;0.30;;;27.60;61.50;;;28.19;45.99;95247.88;5019286;28;20615;-37
2023/08/16 07:03:23;;;;;;;0.30;0.30;;;27.60;61.50;;;28.19;45.95;95251.38;5035953;28;20673;-37
2023/08/16 07:05:51;;;;;;;0.30;0.30;;;27.70;61.50;;;28.19;45.84;95245.97;5036190;28;20314;-40
2023/08/16 07:08:18;;;;;;;0.30;0.30;;;27.60;61.40;;;28.22;46.18;95252.66;5035857;28;20667;-39
2023/08/16 07:10:45;;;;;;;0.30;0.30;;;27.70;61.50;;;28.22;45.86;95250.78;5036291;28;20574;-39
2023/08/16 07:13:12;;;;;;;0.30;0.30;;;27.70;61.50;;;28.23;46.03;95246.19;5034994;28;20226;-37
2023/08/16 07:15:39;;;;;;;0.30;0.30;;;27.70;61.60;;;28.25;45.81;95246.69;5036280;28;20216;-42
2023/08/16 07:18:07;;;;;;;0.30;0.30;;;27.70;61.60;;;28.26;45.89;95248.31;5035387;28;20192;-40
2023/08/16 07:20:34;;;;;;;0.30;0.30;;;27.70;61.60;;;28.29;45.98;95250.38;5035477;28;20191;-40
2023/08/16 07:23:02;;;;;;;0.32;0.32;;;27.70;61.60;;;28.30;46.43;95243.91;5035531;28;20202;-43
2023/08/16 07:25:30;;;;;;;0.25;0.25;;;27.70;61.60;;;28.32;46.37;95243.59;5035836;28;20622;-39
2023/08/16 07:27:59;;;;;;;0.30;0.30;;;27.70;61.60;;;28.33;46.41;95250.59;5035718;28;20268;-39
2023/08/16 07:30:27;;;;;;;0.30;0.30;;;27.70;61.60;;;28.34;46.44;95247.59;5035447;28;20194;-39
2023/08/16 07:32:54;;;;;;;0.30;0.30;;;27.80;61.70;;;28.37;46.34;95255.09;5035411;28;20285;-39
2023/08/16 07:35:22;;;;;;;0.30;0.30;;;27.80;61.70;;;28.40;46.33;95259.09;5035374;28;20306;-39
2023/08/16 07:37:49;;;;;;;0.30;0.30;;;27.80;62.60;;;28.40;46.45;95257.19;5035518;28;20202;-39
2023/08/16 07:40:16;;;;;;;0.40;0.40;;;27.80;61.70;;;28.43;46.61;95262.00;5035458;28;20299;-39
2023/08/16 07:42:43;;;;;;;0.30;0.30;;;27.80;61.60;;;28.44;45.76;95260.91;5035575;28;20283;-37
2023/08/16 07:45:11;;;;;;;0.30;0.30;;;27.90;61.70;;;28.47;45.91;95272.22;5035210;28;20211;-39
2023/08/16 07:47:37;;;;;;;0.30;0.30;;;27.90;61.70;;;28.49;45.96;95265.44;5035206;28;20339;-39
2023/08/16 07:50:05;;;;;;;0.30;0.30;;;27.90;61.70;;;28.51;45.98;95265.13;5035076;28;20192;-39
2023/08/16 07:52:32;;;;;;;0.30;0.30;;;27.90;61.70;;;28.53;46.19;95268.34;5035377;28;20187;-39
2023/08/16 07:54:59;;;;;;;0.40;0.40;;;27.90;61.80;;;28.55;46.06;95277.72;5035108;28;20286;-39
2023/08/16 07:57:26;;;;;;;0.30;0.30;;;28.00;61.80;;;28.57;46.41;95274.72;5035071;28;20532;-39
2023/08/16 07:59:54;;;;;;;0.30;0.30;;;28.00;61.70;;;28.59;45.97;95270.63;5035310;28;20190;-39
2023/08/16 08:02:21;;;;;;;0.30;0.30;;;28.00;61.70;;;28.63;46.52;95278.13;5034259;28;20628;-39
2023/08/16 08:04:49;;;;;;;0.20;0.20;;;28.10;61.80;;;28.64;46.07;95285.13;5034908;28;20222;-39
2023/08/16 08:07:18;;;;;;;0.30;0.30;;;28.00;61.70;;;28.67;46.57;95284.53;5035232;28;20186;-39
2023/08/16 08:09:45;;;;;;;0.30;0.30;;;28.10;61.70;;;28.68;45.96;95281.56;5034797;28;20252;-39
2023/08/16 08:12:12;;;;;;;0.30;0.30;;;28.10;61.70;;;28.70;45.88;95286.69;5034416;28;20661;-39
2023/08/16 08:14:39;;;;;;;0.30;0.30;;;28.10;61.70;;;28.72;46.44;95287.97;5035123;28;20551;-39
2023/08/16 08:17:06;;;;;;;0.30;0.30;;;28.10;61.70;;;28.76;45.85;95290.88;5034879;28;20199;-39
2023/08/16 08:19:33;;;;;;;0.30;0.30;;;28.10;61.70;;;28.76;45.92;95288.19;5034730;28;20249;-39
2023/08/16 08:22:01;;;;;;;0.30;0.30;;;28.20;61.80;;;28.79;46.02;95284.06;5035073;28;20286;-39
2023/08/16 08:24:28;;;;;;;0.30;0.30;;;28.20;61.70;;;28.80;45.79;95297.28;5034730;28;20208;-39
2023/08/16 08:26:57;;;;;;;0.30;0.30;;;28.20;61.70;;;28.83;45.92;95295.88;5050449;28;20265;-39
2023/08/16 08:29:25;;;;;;;0.30;0.30;;;28.20;61.70;;;28.84;46.47;95292.06;5034745;28;20591;-39
2023/08/16 08:31:55;;;;;;;0.30;0.30;;;28.20;61.60;;;28.87;46.03;95294.19;5034927;28;20209;-39
2023/08/16 08:34:24;;;;;;;0.30;0.30;;;28.30;61.70;;;28.88;45.87;95293.06;5035274;28;20232;-39
2023/08/16 08:36:51;;;;;;;0.30;0.30;;;28.30;61.70;;;28.89;46.43;95289.28;5034908;28;20538;-39
2023/08/16 08:39:19;;;;;;;0.30;0.30;;;28.30;61.60;;;28.91;46.34;95289.78;5033826;28;20637;-39
2023/08/16 08:41:48;;;;;;;0.20;0.20;;;28.30;61.70;;;28.91;46.32;95293.25;5017346;28;20630;-39
2023/08/16 08:44:17;;;;;;;0.30;0.30;;;28.30;61.70;;;28.95;46.47;95295.38;5034551;28;20216;-39
2023/08/16 08:46:46;;;;;;;0.30;0.30;;;28.30;61.60;;;28.96;46.45;95294.28;5034652;28;20277;-39
2023/08/16 08:49:19;;;;;;;0.30;0.30;;;28.40;61.70;;;28.97;45.65;95296.69;5033850;28;20182;-39
2023/08/16 08:51:47;;;;;;;0.30;0.30;;;28.40;61.70;;;28.99;45.84;95301.78;5050807;28;20178;-39
2023/08/16 08:54:14;;;;;;;0.30;0.30;;;28.40;61.70;;;29.00;45.72;95306.06;5034559;28;20202;-37
2023/08/16 08:56:43;;;;;;;0.30;0.30;;;28.40;61.70;;;29.02;46.50;95293.88;5033925;28;20200;-36
2023/08/16 08:59:12;;;;;;;0.30;0.30;;;28.40;61.70;;;29.04;46.41;95294.38;5017890;28;20591;-39
2023/08/16 09:01:44;;;;;;;0.30;0.30;;;28.50;61.80;;;29.04;45.87;95294.38;5033604;28;20653;-39
2023/08/16 09:04:15;;;;;;;0.30;0.30;;;28.40;61.70;;;29.07;46.26;95287.56;5033820;28;20224;-39
2023/08/16 09:06:43;;;;;;;0.30;0.30;;;28.50;61.70;;;29.08;45.85;95300.78;5034487;28;20186;-39
2023/08/16 09:09:12;;;;;;;0.30;0.30;;;28.50;61.70;;;29.12;45.71;95297.47;5034395;28;20562;-39
2023/08/16 09:11:40;;;;;;;0.22;0.22;;;28.50;61.70;;;29.14;46.26;95300.66;5034312;28;20195;-39
2023/08/16 09:14:08;;;;;;;0.30;0.30;;;28.50;61.70;;;29.16;46.38;95295.75;5034709;28;20196;-39
2023/08/16 09:16:35;;;;;;;0.30;0.30;;;28.50;61.70;;;29.18;45.73;95293.56;5034305;28;20546;-39
2023/08/16 09:19:03;;;;;;;0.20;0.20;;;28.50;61.60;;;29.20;46.14;95302.19;5034555;28;20252;-39
2023/08/16 09:21:30;;;;;;;0.30;0.30;;;28.50;61.70;;;29.21;46.20;95301.88;5033607;28;20556;-39
2023/08/16 09:23:59;;;;;;;0.30;0.30;;;28.60;61.60;;;29.23;45.59;95301.56;5033640;28;20259;-39
2023/08/16 09:26:29;;;;;;;0.30;0.30;;;28.60;61.60;;;29.25;45.99;95296.66;5037793;28;20630;-40
2023/08/16 09:29:05;;;;;;;0.30;0.30;;;28.60;61.50;;;29.27;46.24;95299.84;5037782;28;20250;-39
2023/08/16 09:31:41;;;;;;;0.30;0.30;;;28.60;61.60;;;29.29;45.87;95299.56;5036896;28;20182;-41
2023/08/16 09:34:12;;;;;;;0.30;0.30;;;28.60;62.40;;;29.31;46.06;95295.50;5038011;28;20270;-40
2023/08/16 09:36:45;;;;;;;0.30;0.30;;;28.70;61.60;;;29.33;46.22;95289.78;5037924;28;20218;-37
2023/08/16 09:39:14;;;;;;;0.20;0.20;;;28.70;61.60;;;29.36;46.19;95289.19;5038105;28;20526;-37
2023/08/16 09:41:51;;;;;;;0.30;0.30;;;28.70;61.50;;;29.37;45.38;95288.09;5038033;28;20217;-38
2023/08/16 09:44:21;;;;;;;0.20;0.20;;;28.70;61.50;;;29.40;45.39;95292.88;5020576;28;20262;-37
2023/08/16 09:46:48;;;;;;;0.30;0.30;;;28.70;61.50;;;29.42;45.98;95287.16;5037282;28;20253;-37
2023/08/16 09:49:23;;;;;;;0.30;0.30;;;28.70;61.50;;;29.45;45.86;95283.84;5036896;28;20198;-37
2023/08/16 09:51:50;;;;;;;0.20;0.20;;;28.80;61.50;;;29.46;45.36;95283.53;5036314;28;20552;-37
2023/08/16 09:54:23;;;;;;;0.30;0.30;;;28.80;61.50;;;29.48;46.12;95277.84;5037327;28;20298;-37
2023/08/16 09:56:51;;;;;;;0.30;0.30;;;28.80;62.40;;;29.51;46.07;95282.66;5037565;28;20259;-37
2023/08/16 09:59:22;;;;;;;0.30;0.30;;;28.80;61.40;;;29.52;45.53;95282.34;5037260;28;20267;-37
2023/08/16 10:01:54;;;;;;;0.30;0.30;;;28.80;61.40;;;29.55;45.97;95278.22;5036282;28;20275;-37
2023/08/16 10:04:42;;;;;;;0.30;0.30;;;28.80;61.50;;;29.57;45.51;95283.34;5037095;28;20238;-37
2023/08/16 10:07:12;;;;;;;0.38;0.38;;;28.90;61.50;;;29.59;46.00;95281.94;5037112;28;20180;-37
2023/08/16 10:09:44;;;;;;;0.30;0.30;;;28.90;61.40;;;29.62;45.45;95281.31;5036188;28;20209;-37
2023/08/16 10:12:11;;;;;;;0.20;0.20;;;28.90;61.40;;;29.64;45.41;95276.41;5036818;28;20191;-37
2023/08/16 10:14:39;;;;;;;0.30;0.30;;;29.00;61.50;;;29.67;46.05;95275.78;5037228;28;20654;-37
2023/08/16 10:17:07;;;;;;;0.30;0.30;;;29.00;61.50;;;29.69;45.81;95278.97;5036857;28;20594;-37
2023/08/16 10:19:37;;;;;;;0.30;0.30;;;29.00;61.50;;;29.72;46.02;95280.28;5037084;28;20210;-37
2023/08/16 10:22:19;;;;;;;0.30;0.30;;;29.00;61.50;;;29.76;46.04;95283.97;5036715;28;20257;-37
2023/08/16 10:25:10;;;;;;;0.30;0.30;;;29.00;61.50;;;29.77;45.34;95285.59;5037005;28;20305;-37
2023/08/16 10:27:43;;;;;;;0.30;0.30;;;29.10;61.50;;;29.79;45.56;95277.94;5036951;28;20179;-37